createdAt,value
2022-12-31T00:00:30.932Z,0.85
2022-12-31T00:02:32.849Z,0.70
2022-12-31T00:04:34.913Z,0.70
2022-12-31T00:06:36.988Z,0.90
2022-12-31T00:08:38.661Z,1.00
2022-12-31T00:10:41.887Z,1.02
2022-12-31T00:12:43.716Z,0.93
2022-12-31T00:14:45.730Z,0.77
2022-12-31T00:16:47.531Z,0.77
2022-12-31T00:18:52.668Z,1.00
2022-12-31T00:20:54.352Z,0.68
2022-12-31T00:22:56.066Z,1.00
2022-12-31T00:24:57.738Z,0.88
2022-12-31T00:26:59.411Z,0.82
2022-12-31T00:29:01.913Z,1.20
2022-12-31T00:31:14.371Z,0.88
2022-12-31T00:33:16.057Z,0.70
2022-12-31T00:35:17.925Z,0.80
2022-12-31T00:37:19.590Z,0.80
2022-12-31T00:39:21.345Z,0.98
2022-12-31T00:41:23.709Z,0.90
2022-12-31T00:43:25.401Z,1.10
2022-12-31T00:45:27.095Z,0.82
2022-12-31T00:47:28.815Z,0.80
2022-12-31T00:49:30.521Z,0.90
2022-12-31T00:51:32.280Z,0.85
2022-12-31T00:53:34.316Z,0.80
2022-12-31T00:55:35.972Z,0.95
2022-12-31T00:57:37.621Z,0.98
2022-12-31T00:59:39.364Z,0.73
2022-12-31T01:01:42.305Z,0.65
2022-12-31T01:03:44.280Z,0.95
2022-12-31T01:05:45.975Z,1.20
2022-12-31T01:07:47.637Z,0.88
2022-12-31T01:09:49.416Z,0.80
2022-12-31T01:11:51.933Z,0.95
2022-12-31T01:13:56.379Z,1.00
2022-12-31T01:15:58.174Z,1.27
2022-12-31T01:17:59.846Z,1.02
2022-12-31T01:20:01.580Z,1.05
2022-12-31T01:22:03.267Z,0.68
2022-12-31T01:24:05.308Z,1.10
2022-12-31T01:26:08.778Z,0.90
2022-12-31T01:28:10.458Z,1.13
2022-12-31T01:30:12.620Z,0.95
2022-12-31T01:32:14.287Z,0.98
2022-12-31T01:34:15.961Z,0.95
2022-12-31T01:36:26.166Z,1.00
2022-12-31T01:38:28.711Z,1.10
2022-12-31T01:40:30.483Z,1.00
2022-12-31T01:42:32.141Z,0.82
2022-12-31T01:44:33.789Z,0.88
2022-12-31T01:46:50.118Z,0.90
2022-12-31T01:48:54.977Z,0.98
2022-12-31T01:50:56.668Z,1.15
2022-12-31T01:53:01.017Z,0.98
2022-12-31T01:55:23.823Z,1.85
2022-12-31T01:57:26.549Z,1.23
2022-12-31T01:59:29.320Z,1.08
2022-12-31T02:01:32.467Z,1.30
2022-12-31T02:03:34.610Z,1.08
2022-12-31T02:05:41.710Z,1.17
2022-12-31T02:07:44.167Z,1.13
2022-12-31T02:09:46.024Z,1.50
2022-12-31T02:11:47.806Z,1.00
2022-12-31T02:13:53.747Z,0.95
2022-12-31T02:16:09.981Z,0.80
2022-12-31T02:18:25.757Z,0.93
2022-12-31T02:20:35.652Z,0.80
2022-12-31T02:22:49.559Z,0.93
2022-12-31T02:25:13.617Z,1.25
2022-12-31T02:27:48.877Z,0.75
2022-12-31T02:30:12.010Z,0.90
2022-12-31T02:32:32.664Z,0.93
2022-12-31T02:34:37.875Z,1.08
2022-12-31T02:36:43.102Z,0.90
2022-12-31T02:38:47.010Z,1.02
2022-12-31T02:40:49.020Z,1.38
2022-12-31T02:42:55.292Z,1.02
2022-12-31T02:44:57.537Z,0.98
2022-12-31T02:47:09.594Z,0.90
2022-12-31T02:49:17.025Z,1.10
2022-12-31T02:51:36.982Z,0.98
2022-12-31T02:53:56.576Z,1.20
2022-12-31T02:56:05.769Z,1.10
2022-12-31T02:58:50.190Z,1.45
2022-12-31T03:01:13.185Z,1.13
2022-12-31T03:03:14.981Z,0.90
2022-12-31T03:05:19.253Z,1.15
2022-12-31T03:07:26.691Z,1.23
2022-12-31T03:09:28.444Z,1.00
2022-12-31T03:11:48.774Z,1.00
2022-12-31T03:13:53.604Z,1.00
2022-12-31T03:15:55.387Z,0.90
2022-12-31T03:18:01.084Z,0.85
2022-12-31T03:20:21.312Z,0.73
2022-12-31T03:22:28.958Z,1.35
2022-12-31T03:24:49.449Z,0.70
2022-12-31T03:26:51.151Z,0.90
2022-12-31T03:28:52.797Z,1.13
2022-12-31T03:30:57.129Z,1.17
2022-12-31T03:32:59.149Z,1.20
2022-12-31T03:35:00.840Z,1.25
2022-12-31T03:37:02.580Z,0.90
2022-12-31T03:39:04.270Z,0.90
2022-12-31T03:41:06.401Z,1.00
2022-12-31T03:43:08.631Z,0.95
2022-12-31T03:45:11.537Z,0.60
2022-12-31T03:47:13.247Z,0.90
2022-12-31T03:49:15.012Z,1.10
2022-12-31T03:51:17.040Z,0.80
2022-12-31T03:53:19.096Z,0.95
2022-12-31T03:55:20.942Z,0.85
2022-12-31T03:57:23.915Z,0.90
2022-12-31T03:59:25.623Z,0.98
2022-12-31T04:01:27.517Z,0.75
2022-12-31T04:03:29.340Z,0.80
2022-12-31T04:05:31.408Z,0.75
2022-12-31T04:07:33.442Z,0.75
2022-12-31T04:09:35.222Z,0.70
2022-12-31T04:11:39.852Z,0.63
2022-12-31T04:13:41.504Z,0.93
2022-12-31T04:15:43.281Z,0.70
2022-12-31T04:17:45.227Z,0.90
2022-12-31T04:19:46.999Z,0.90
2022-12-31T04:21:48.760Z,0.80
2022-12-31T04:23:50.532Z,1.00
2022-12-31T04:25:54.155Z,0.70
2022-12-31T04:27:55.786Z,1.00
2022-12-31T04:29:57.507Z,0.85
2022-12-31T04:31:59.331Z,0.70
2022-12-31T04:34:01.028Z,1.08
2022-12-31T04:36:04.795Z,1.10
2022-12-31T04:38:06.746Z,1.10
2022-12-31T04:40:11.904Z,0.82
2022-12-31T04:42:13.617Z,0.73
2022-12-31T04:44:15.722Z,1.25
2022-12-31T04:46:19.466Z,0.75
2022-12-31T04:48:21.200Z,0.90
2022-12-31T04:50:22.881Z,0.65
2022-12-31T04:52:24.637Z,0.60
2022-12-31T04:54:26.405Z,0.60
2022-12-31T04:56:28.715Z,0.70
2022-12-31T04:58:30.467Z,0.70
2022-12-31T05:00:32.170Z,0.65
2022-12-31T05:02:34.013Z,0.68
2022-12-31T05:04:35.892Z,0.65
2022-12-31T05:06:37.590Z,0.60
2022-12-31T05:08:39.352Z,0.50
2022-12-31T05:10:46.263Z,0.57
2022-12-31T05:12:47.927Z,0.63
2022-12-31T05:14:49.667Z,0.73
2022-12-31T05:16:51.432Z,0.90
2022-12-31T05:18:53.109Z,0.60
2022-12-31T05:20:54.945Z,0.60
2022-12-31T05:22:56.703Z,0.70
2022-12-31T05:24:59.028Z,0.50
2022-12-31T05:27:00.736Z,0.70
2022-12-31T05:29:02.414Z,0.70
2022-12-31T05:31:04.308Z,0.60
2022-12-31T05:33:06.046Z,0.75
2022-12-31T05:35:08.193Z,0.65
2022-12-31T05:37:10.067Z,1.00
2022-12-31T05:39:11.922Z,0.60
2022-12-31T05:41:13.677Z,0.73
2022-12-31T05:43:15.403Z,0.60
2022-12-31T05:45:18.559Z,0.80
2022-12-31T05:47:20.254Z,0.93
2022-12-31T05:49:21.938Z,0.60
2022-12-31T05:51:23.634Z,0.70
2022-12-31T05:53:25.430Z,0.70
2022-12-31T05:55:27.179Z,0.70
2022-12-31T05:57:28.909Z,0.80
2022-12-31T05:59:31.047Z,0.70
2022-12-31T06:01:32.799Z,0.60
2022-12-31T06:03:34.623Z,0.60
2022-12-31T06:05:41.782Z,0.90
2022-12-31T06:07:43.555Z,0.95
2022-12-31T06:09:45.263Z,0.70
2022-12-31T06:11:47.203Z,0.88
2022-12-31T06:13:48.857Z,0.90
2022-12-31T06:15:50.608Z,0.60
2022-12-31T06:17:52.372Z,1.25
2022-12-31T06:19:54.145Z,0.80
2022-12-31T06:21:55.799Z,0.70
2022-12-31T06:23:58.837Z,0.80
2022-12-31T06:26:04.664Z,0.85
2022-12-31T06:28:06.738Z,0.73
2022-12-31T06:30:09.280Z,0.75
2022-12-31T06:32:11.040Z,0.80
2022-12-31T06:34:12.713Z,1.33
2022-12-31T06:36:15.892Z,1.35
2022-12-31T06:38:17.701Z,1.15
2022-12-31T06:40:19.480Z,0.77
2022-12-31T06:42:21.271Z,1.35
2022-12-31T06:44:23.097Z,1.08
2022-12-31T06:46:24.860Z,1.05
2022-12-31T06:48:26.537Z,0.98
2022-12-31T06:50:28.272Z,1.15
2022-12-31T06:52:30.008Z,1.00
2022-12-31T06:54:31.880Z,1.00
2022-12-31T06:56:34.987Z,1.10
2022-12-31T06:58:37.502Z,1.63
2022-12-31T07:00:41.963Z,0.90
2022-12-31T07:02:58.293Z,0.85
2022-12-31T07:05:29.259Z,1.08
2022-12-31T07:07:43.007Z,1.05
2022-12-31T07:10:11.263Z,1.50
2022-12-31T07:12:26.586Z,1.40
2022-12-31T07:14:31.000Z,1.10
2022-12-31T07:17:07.129Z,0.88
2022-12-31T07:19:33.444Z,1.30
2022-12-31T07:21:40.220Z,0.95
2022-12-31T07:23:42.995Z,0.90
2022-12-31T07:25:55.198Z,1.10
2022-12-31T07:28:09.156Z,1.10
2022-12-31T07:30:45.665Z,0.80
2022-12-31T07:32:53.396Z,1.00
2022-12-31T07:35:31.239Z,0.98
2022-12-31T07:38:06.685Z,1.00
2022-12-31T07:40:17.553Z,1.20
2022-12-31T07:42:26.609Z,1.20
2022-12-31T07:44:48.551Z,0.85
2022-12-31T07:46:55.467Z,1.00
2022-12-31T07:49:00.416Z,0.90
2022-12-31T07:51:02.496Z,1.08
2022-12-31T07:53:04.505Z,0.75
2022-12-31T07:55:06.542Z,1.33
2022-12-31T07:57:10.175Z,1.35
2022-12-31T07:59:24.415Z,0.80
2022-12-31T08:02:00.335Z,1.10
2022-12-31T08:04:41.046Z,1.20
2022-12-31T08:06:42.715Z,0.90
2022-12-31T08:09:05.704Z,1.05
2022-12-31T08:11:31.986Z,0.88
2022-12-31T08:13:33.870Z,1.00
2022-12-31T08:15:37.796Z,0.80
2022-12-31T08:17:39.630Z,1.08
2022-12-31T08:19:42.133Z,1.00
2022-12-31T08:22:11.809Z,1.00
2022-12-31T08:24:25.708Z,1.10
2022-12-31T08:26:52.617Z,0.80
2022-12-31T08:29:01.394Z,1.17
2022-12-31T08:31:11.319Z,1.23
2022-12-31T08:33:15.644Z,0.98
2022-12-31T08:35:35.934Z,1.08
2022-12-31T08:37:41.293Z,1.08
2022-12-31T08:40:09.022Z,0.88
2022-12-31T08:42:42.115Z,1.30
2022-12-31T08:45:14.684Z,0.80
2022-12-31T08:47:25.364Z,0.82
2022-12-31T08:49:28.877Z,1.30
2022-12-31T08:51:30.884Z,1.00
2022-12-31T08:53:32.889Z,1.10
2022-12-31T08:55:35.145Z,1.23
2022-12-31T08:57:45.316Z,0.80
2022-12-31T09:00:10.483Z,0.95
2022-12-31T09:02:27.409Z,0.80
2022-12-31T09:04:47.812Z,1.08
2022-12-31T09:06:57.685Z,0.85
2022-12-31T09:09:22.152Z,1.40
2022-12-31T09:11:31.328Z,1.05
2022-12-31T09:13:54.392Z,1.20
2022-12-31T09:16:03.913Z,0.80
2022-12-31T09:18:06.203Z,1.00
2022-12-31T09:20:19.786Z,1.00
2022-12-31T09:22:21.832Z,1.00
2022-12-31T09:24:23.800Z,0.98
2022-12-31T09:27:15.943Z,1.13
2022-12-31T09:29:20.473Z,1.25
2022-12-31T09:31:31.392Z,1.00
2022-12-31T09:33:52.936Z,0.90
2022-12-31T09:35:57.256Z,0.90
2022-12-31T09:38:09.486Z,1.10
2022-12-31T09:40:50.848Z,1.13
2022-12-31T09:43:01.332Z,0.98
2022-12-31T09:45:43.999Z,1.00
2022-12-31T09:48:00.649Z,1.30
2022-12-31T09:50:06.446Z,1.15
2022-12-31T09:52:14.601Z,1.10
2022-12-31T09:54:31.833Z,1.00
2022-12-31T09:56:40.031Z,1.65
2022-12-31T09:58:45.984Z,0.95
2022-12-31T10:00:53.226Z,0.80
2022-12-31T10:03:07.483Z,0.95
2022-12-31T10:05:36.860Z,1.00
2022-12-31T10:08:00.411Z,0.90
2022-12-31T10:10:15.247Z,0.88
2022-12-31T10:12:22.782Z,1.10
2022-12-31T10:14:24.426Z,0.98
2022-12-31T10:16:34.611Z,0.85
2022-12-31T10:19:00.250Z,1.00
2022-12-31T10:21:38.587Z,1.02
2022-12-31T10:24:03.261Z,0.68
2022-12-31T10:26:25.213Z,0.85
2022-12-31T10:28:49.680Z,0.90
2022-12-31T10:31:14.469Z,0.80
2022-12-31T10:33:21.979Z,0.60
2022-12-31T10:35:48.240Z,0.98
2022-12-31T10:38:05.247Z,1.30
2022-12-31T10:40:09.526Z,1.17
2022-12-31T10:42:26.072Z,0.90
2022-12-31T10:44:48.985Z,0.63
2022-12-31T10:47:12.283Z,0.90
2022-12-31T10:49:38.952Z,0.82
2022-12-31T10:51:40.686Z,0.70
2022-12-31T10:54:13.137Z,1.40
2022-12-31T10:56:36.280Z,0.80
2022-12-31T10:58:53.339Z,0.90
2022-12-31T11:01:10.423Z,0.88
2022-12-31T11:03:49.702Z,0.77
2022-12-31T11:06:24.747Z,0.77
2022-12-31T11:08:41.053Z,0.50
2022-12-31T11:10:42.735Z,0.73
2022-12-31T11:13:07.537Z,0.80
2022-12-31T11:15:39.362Z,0.88
2022-12-31T11:18:13.937Z,0.70
2022-12-31T11:20:40.330Z,0.88
2022-12-31T11:22:44.908Z,0.85
2022-12-31T11:25:04.264Z,0.85
2022-12-31T11:27:24.562Z,0.60
2022-12-31T11:29:43.653Z,0.93
2022-12-31T11:32:03.503Z,0.77
2022-12-31T11:34:17.114Z,0.98
2022-12-31T11:36:34.340Z,0.77
2022-12-31T11:38:46.034Z,0.90
2022-12-31T11:41:00.720Z,0.80
2022-12-31T11:43:11.862Z,0.80
2022-12-31T11:45:51.093Z,0.68
2022-12-31T11:48:34.714Z,0.85
2022-12-31T11:51:14.045Z,0.70
2022-12-31T11:53:30.984Z,0.80
2022-12-31T11:56:13.116Z,0.73
2022-12-31T11:58:20.801Z,0.60
2022-12-31T12:00:25.581Z,0.50
2022-12-31T12:02:37.977Z,0.70
2022-12-31T12:04:39.708Z,0.90
2022-12-31T12:06:42.890Z,0.52
2022-12-31T12:08:45.287Z,0.70
2022-12-31T12:10:57.056Z,0.70
2022-12-31T12:12:59.210Z,0.70
2022-12-31T12:15:01.020Z,0.65
2022-12-31T12:17:05.859Z,0.73
2022-12-31T12:19:17.885Z,0.55
2022-12-31T12:21:24.390Z,0.95
2022-12-31T12:23:26.765Z,0.68
2022-12-31T12:25:38.753Z,0.52
2022-12-31T12:27:40.494Z,0.52
2022-12-31T12:29:45.220Z,0.60
2022-12-31T12:32:23.048Z,0.50
2022-12-31T12:34:36.087Z,0.70
2022-12-31T12:36:46.512Z,0.60
2022-12-31T12:38:48.406Z,0.80
2022-12-31T12:40:55.460Z,0.70
2022-12-31T12:42:57.177Z,0.80
2022-12-31T12:45:15.788Z,0.50
2022-12-31T12:47:20.573Z,0.68
2022-12-31T12:49:37.991Z,0.68
2022-12-31T12:51:42.358Z,0.52
2022-12-31T12:54:34.524Z,0.43
2022-12-31T12:56:46.145Z,0.60
2022-12-31T12:59:25.213Z,0.50
2022-12-31T13:01:39.597Z,0.40
2022-12-31T13:06:40.208Z,0.52
2022-12-31T13:08:47.820Z,0.40
2022-12-31T13:11:37.141Z,0.40
2022-12-31T13:13:43.291Z,0.73
2022-12-31T13:15:58.443Z,0.50
2022-12-31T13:18:30.609Z,0.40
2022-12-31T13:20:32.337Z,0.50
2022-12-31T13:22:58.846Z,0.70
2022-12-31T13:25:22.473Z,0.40
2022-12-31T13:27:37.152Z,0.68
2022-12-31T13:29:39.499Z,0.60
2022-12-31T13:31:42.513Z,0.43
2022-12-31T13:33:48.343Z,0.60
2022-12-31T13:36:02.363Z,0.50
2022-12-31T13:38:10.548Z,0.50
2022-12-31T13:40:19.155Z,0.70
2022-12-31T13:43:00.850Z,0.50
2022-12-31T13:45:12.946Z,0.52
2022-12-31T13:47:20.877Z,0.73
2022-12-31T13:49:40.638Z,0.82
2022-12-31T13:51:46.879Z,0.80
2022-12-31T13:54:03.090Z,0.50
2022-12-31T13:56:20.367Z,0.68
2022-12-31T13:58:45.947Z,0.82
2022-12-31T14:00:55.974Z,0.63
2022-12-31T14:03:45.467Z,0.90
2022-12-31T14:05:55.069Z,0.68
2022-12-31T14:08:02.133Z,0.70
2022-12-31T14:10:12.690Z,0.80
2022-12-31T14:12:26.149Z,0.80
2022-12-31T14:15:07.988Z,0.70
2022-12-31T14:17:40.393Z,0.63
2022-12-31T14:19:55.272Z,0.60
2022-12-31T14:21:56.947Z,0.70
2022-12-31T14:24:17.469Z,0.63
2022-12-31T14:26:31.255Z,0.63
2022-12-31T14:28:39.306Z,0.47
2022-12-31T14:30:46.488Z,0.52
2022-12-31T14:33:15.573Z,0.50
2022-12-31T14:35:23.162Z,0.68
2022-12-31T14:37:42.275Z,0.85
2022-12-31T14:39:47.018Z,0.68
2022-12-31T14:42:14.297Z,0.63
2022-12-31T14:44:37.765Z,0.60
2022-12-31T14:46:59.053Z,0.60
2022-12-31T14:49:21.866Z,0.38
2022-12-31T14:51:28.802Z,0.68
2022-12-31T14:53:30.934Z,0.60
2022-12-31T14:55:34.686Z,0.60
2022-12-31T14:58:09.723Z,0.63
2022-12-31T15:00:02.707Z,0.50
2022-12-31T15:02:34.225Z,0.60
2022-12-31T15:04:44.735Z,0.60
2022-12-31T15:06:57.111Z,0.50
2022-12-31T15:09:23.691Z,0.70
2022-12-31T15:12:02.928Z,0.60
2022-12-31T15:14:26.528Z,0.70
2022-12-31T15:16:31.475Z,0.40
2022-12-31T15:18:48.419Z,0.70
2022-12-31T15:21:05.287Z,0.50
2022-12-31T15:23:21.878Z,0.90
2022-12-31T15:25:28.373Z,0.70
2022-12-31T15:27:38.380Z,0.60
2022-12-31T15:29:44.569Z,0.95
2022-12-31T15:31:48.327Z,0.68
2022-12-31T15:33:55.225Z,0.60
2022-12-31T15:35:57.680Z,0.60
2022-12-31T15:38:02.242Z,0.70
2022-12-31T15:40:16.268Z,0.70
2022-12-31T15:42:53.009Z,0.70
2022-12-31T15:45:01.450Z,0.63
2022-12-31T15:47:11.307Z,1.10
2022-12-31T15:49:19.223Z,0.90
2022-12-31T15:51:29.831Z,0.60
2022-12-31T15:53:35.141Z,0.57
2022-12-31T15:55:41.779Z,0.45
2022-12-31T15:57:43.740Z,0.60
2022-12-31T15:59:46.194Z,0.80
2022-12-31T16:01:48.144Z,0.50
2022-12-31T16:03:55.967Z,0.52
2022-12-31T16:06:03.093Z,0.70
2022-12-31T16:08:05.165Z,0.60
2022-12-31T16:10:07.321Z,0.60
2022-12-31T16:12:24.449Z,0.50
2022-12-31T16:14:39.774Z,0.50
2022-12-31T16:16:52.178Z,0.80
2022-12-31T16:18:54.281Z,0.60
2022-12-31T16:20:56.016Z,0.70
2022-12-31T16:23:00.194Z,1.00
2022-12-31T16:25:32.887Z,1.20
2022-12-31T16:27:25.827Z,1.10
2022-12-31T16:29:27.587Z,0.95
2022-12-31T16:31:30.149Z,0.55
2022-12-31T16:33:32.419Z,0.98
2022-12-31T16:35:37.524Z,0.63
2022-12-31T16:37:39.206Z,0.57
2022-12-31T16:40:00.947Z,0.90
2022-12-31T16:42:14.724Z,0.60
2022-12-31T16:44:30.092Z,0.70
2022-12-31T16:46:33.288Z,1.10
2022-12-31T16:48:35.177Z,2.05
2022-12-31T16:50:37.678Z,1.13
2022-12-31T16:52:44.079Z,1.20
2022-12-31T16:54:48.143Z,0.90
2022-12-31T16:56:49.912Z,1.30
2022-12-31T16:58:56.458Z,1.60
2022-12-31T17:01:28.210Z,1.23
2022-12-31T17:03:30.315Z,2.00
2022-12-31T17:05:35.292Z,1.40
2022-12-31T17:07:41.210Z,2.38
2022-12-31T17:09:42.915Z,1.60
2022-12-31T17:11:58.649Z,1.42
2022-12-31T17:14:06.212Z,1.17
2022-12-31T17:16:08.054Z,0.80
2022-12-31T17:18:20.129Z,1.10
2022-12-31T17:20:28.402Z,0.80
2022-12-31T17:22:40.733Z,1.45
2022-12-31T17:24:42.522Z,1.10
2022-12-31T17:26:44.937Z,1.00
2022-12-31T17:28:49.104Z,1.70
2022-12-31T17:30:51.355Z,1.13
2022-12-31T17:33:00.105Z,1.00
2022-12-31T17:35:02.060Z,0.88
2022-12-31T17:37:06.976Z,1.27
2022-12-31T17:39:20.096Z,1.20
2022-12-31T17:41:28.240Z,0.80
2022-12-31T17:43:35.184Z,0.82
2022-12-31T17:45:37.812Z,1.40
2022-12-31T17:47:40.883Z,1.20
2022-12-31T17:49:45.261Z,1.33
2022-12-31T17:51:47.832Z,1.08
2022-12-31T17:53:49.830Z,1.40
2022-12-31T17:55:53.413Z,1.65
2022-12-31T17:57:57.181Z,1.20
2022-12-31T17:59:58.991Z,1.55
2022-12-31T18:02:03.152Z,1.05
2022-12-31T18:04:09.189Z,1.48
2022-12-31T18:06:16.613Z,1.00
2022-12-31T18:08:18.972Z,1.67
2022-12-31T18:10:22.918Z,0.93
2022-12-31T18:12:24.717Z,1.00
2022-12-31T18:14:26.390Z,0.75
2022-12-31T18:16:28.561Z,1.35
2022-12-31T18:18:35.555Z,1.13
2022-12-31T18:20:37.320Z,0.98
2022-12-31T18:22:40.909Z,0.88
2022-12-31T18:24:43.419Z,1.13
2022-12-31T18:26:45.331Z,1.20
2022-12-31T18:28:48.090Z,0.93
2022-12-31T18:30:50.227Z,1.05
2022-12-31T18:32:52.033Z,1.00
2022-12-31T18:34:53.773Z,0.90
2022-12-31T18:36:55.523Z,0.70
2022-12-31T18:38:57.253Z,1.00
2022-12-31T18:40:59.663Z,1.27
2022-12-31T18:43:05.182Z,1.15
2022-12-31T18:45:18.775Z,0.82
2022-12-31T18:47:23.334Z,0.77
2022-12-31T18:49:25.011Z,1.00
2022-12-31T18:51:32.022Z,1.23
2022-12-31T18:53:34.271Z,1.00
2022-12-31T18:55:40.448Z,0.80
2022-12-31T18:57:42.085Z,0.68
2022-12-31T18:59:43.819Z,0.98
2022-12-31T19:01:45.679Z,0.98
2022-12-31T19:03:47.382Z,0.77
2022-12-31T19:05:51.143Z,0.60
2022-12-31T19:07:53.344Z,0.93
2022-12-31T19:09:58.470Z,0.70
2022-12-31T19:12:00.578Z,1.00
2022-12-31T19:14:02.967Z,0.93
2022-12-31T19:16:04.846Z,1.40
2022-12-31T19:18:06.530Z,1.35
2022-12-31T19:20:08.434Z,0.85
2022-12-31T19:22:15.063Z,1.45
2022-12-31T19:24:23.190Z,1.00
2022-12-31T19:26:24.948Z,1.00
2022-12-31T19:28:27.957Z,0.90
2022-12-31T19:30:33.034Z,1.70
2022-12-31T19:32:34.757Z,1.42
2022-12-31T19:34:36.453Z,1.05
2022-12-31T19:36:43.853Z,1.08
2022-12-31T19:38:46.521Z,0.90
2022-12-31T19:40:49.108Z,0.93
2022-12-31T19:42:51.882Z,0.90
2022-12-31T19:44:53.623Z,0.77
2022-12-31T19:46:55.418Z,0.80
2022-12-31T19:48:57.143Z,1.00
2022-12-31T19:50:58.878Z,1.05
2022-12-31T19:53:00.720Z,0.93
2022-12-31T19:55:02.944Z,0.77
2022-12-31T19:57:04.651Z,0.82
2022-12-31T19:59:07.640Z,1.02
2022-12-31T20:01:18.481Z,0.70
2022-12-31T20:03:20.289Z,0.90
2022-12-31T20:05:22.160Z,1.00
2022-12-31T20:07:27.240Z,0.93
2022-12-31T20:09:29.119Z,0.90
2022-12-31T20:11:30.857Z,0.90
2022-12-31T20:13:32.671Z,0.80
2022-12-31T20:15:34.617Z,0.77
2022-12-31T20:17:37.197Z,0.80
2022-12-31T20:19:38.912Z,0.70
2022-12-31T20:21:42.018Z,1.10
2022-12-31T20:23:44.124Z,0.80
2022-12-31T20:25:56.759Z,0.90
2022-12-31T20:27:58.486Z,0.77
2022-12-31T20:30:00.270Z,0.75
2022-12-31T20:32:02.472Z,0.70
2022-12-31T20:34:04.170Z,1.33
2022-12-31T20:36:10.259Z,0.70
2022-12-31T20:38:11.997Z,0.70
2022-12-31T20:40:14.449Z,0.88
2022-12-31T20:42:16.208Z,0.80
2022-12-31T20:44:18.073Z,0.98
2022-12-31T20:46:22.514Z,0.90
2022-12-31T20:48:24.365Z,0.90
2022-12-31T20:50:26.117Z,1.00
2022-12-31T20:52:27.832Z,1.00
2022-12-31T20:54:29.483Z,0.90
2022-12-31T20:56:32.934Z,1.80
2022-12-31T20:58:35.050Z,1.10
2022-12-31T21:00:36.772Z,0.85
2022-12-31T21:02:43.201Z,0.88
2022-12-31T21:04:46.934Z,1.00
2022-12-31T21:06:49.039Z,0.80
2022-12-31T21:08:50.824Z,1.27
2022-12-31T21:10:52.687Z,0.95
2022-12-31T21:12:54.409Z,0.73
2022-12-31T21:14:56.457Z,0.90
2022-12-31T21:16:58.252Z,1.33
2022-12-31T21:19:00.045Z,0.80
2022-12-31T21:21:01.788Z,1.25
2022-12-31T21:23:03.462Z,1.20
2022-12-31T21:25:05.970Z,1.00
2022-12-31T21:27:07.680Z,1.00
2022-12-31T21:29:09.357Z,0.98
2022-12-31T21:31:13.021Z,1.00
2022-12-31T21:33:14.842Z,0.88
2022-12-31T21:35:43.285Z,0.80
2022-12-31T21:37:58.670Z,1.25
2022-12-31T21:39:59.969Z,1.00
2022-12-31T21:42:01.738Z,0.90
2022-12-31T21:44:03.571Z,0.77
2022-12-31T21:46:07.156Z,0.98
2022-12-31T21:48:22.026Z,0.90
2022-12-31T21:50:23.837Z,1.00
2022-12-31T21:52:33.994Z,1.05
2022-12-31T21:55:11.101Z,1.13
2022-12-31T21:57:12.898Z,1.00
2022-12-31T21:59:33.154Z,0.90
2022-12-31T22:01:53.476Z,1.23
2022-12-31T22:03:55.201Z,1.00
2022-12-31T22:06:00.938Z,0.90
2022-12-31T22:08:02.798Z,1.00
2022-12-31T22:10:04.841Z,0.93
2022-12-31T22:12:06.738Z,1.30
2022-12-31T22:14:09.592Z,1.00
2022-12-31T22:16:13.310Z,1.20
2022-12-31T22:18:16.438Z,0.98
2022-12-31T22:20:27.549Z,1.40
2022-12-31T22:22:29.769Z,0.90
2022-12-31T22:24:31.420Z,1.00
2022-12-31T22:26:33.458Z,1.13
2022-12-31T22:28:38.789Z,1.02
2022-12-31T22:30:41.118Z,1.27
2022-12-31T22:32:42.815Z,0.90
2022-12-31T22:34:44.503Z,0.88
2022-12-31T22:36:46.306Z,1.00
2022-12-31T22:38:49.316Z,1.08
2022-12-31T22:40:51.112Z,1.38
2022-12-31T22:42:52.803Z,1.10
2022-12-31T22:44:54.471Z,1.38
2022-12-31T22:46:56.364Z,0.80
2022-12-31T22:48:59.663Z,1.10
2022-12-31T22:51:01.644Z,0.77
2022-12-31T22:53:03.358Z,1.08
2022-12-31T22:55:05.508Z,1.15
2022-12-31T22:57:07.337Z,0.85
2022-12-31T22:59:09.460Z,1.00
2022-12-31T23:01:22.644Z,1.42
2022-12-31T23:03:24.455Z,2.53
2022-12-31T23:05:26.234Z,7.60
2022-12-31T23:07:27.929Z,8.75
2022-12-31T23:09:58.990Z,10.02
2022-12-31T23:12:01.065Z,18.02
2022-12-31T23:14:21.687Z,21.60
2022-12-31T23:16:43.471Z,10.25
2022-12-31T23:19:05.677Z,6.65
2022-12-31T23:21:28.685Z,13.65
2022-12-31T23:23:30.509Z,9.63
2022-12-31T23:25:37.283Z,4.38
2022-12-31T23:27:39.002Z,3.13
2022-12-31T23:29:46.640Z,3.53
2022-12-31T23:31:49.417Z,3.60
2022-12-31T23:33:51.139Z,3.47
2022-12-31T23:36:06.277Z,2.53
2022-12-31T23:38:08.102Z,2.65
2022-12-31T23:40:15.764Z,3.03
2022-12-31T23:42:22.616Z,3.42
2022-12-31T23:44:24.316Z,2.53
2022-12-31T23:46:26.089Z,2.80
2022-12-31T23:48:27.766Z,3.28
2022-12-31T23:50:29.540Z,2.90
2022-12-31T23:52:31.231Z,2.35
2022-12-31T23:54:32.991Z,2.15
2022-12-31T23:56:35.100Z,2.13
2022-12-31T23:58:36.843Z,2.45
